createdAt,value
2023-03-18T00:04:24.782Z,97541.19
2023-03-18T00:09:27.555Z,97529.50
2023-03-18T00:14:30.759Z,97531.91
2023-03-18T00:19:33.798Z,97534.66
2023-03-18T00:24:37.162Z,97531.31
2023-03-18T00:29:42.945Z,97538.78
2023-03-18T00:34:45.454Z,97552.31
2023-03-18T00:39:47.986Z,97558.22
2023-03-18T00:44:50.666Z,97565.97
2023-03-18T00:49:55.094Z,97567.78
2023-03-18T00:54:57.559Z,97564.75
2023-03-18T01:00:00.563Z,97568.88
2023-03-18T01:05:04.058Z,97563.56
2023-03-18T01:10:07.880Z,97562.19
2023-03-18T01:15:14.243Z,97573.84
2023-03-18T01:20:19.603Z,97576.31
2023-03-18T01:25:27.354Z,97578.41
2023-03-18T01:30:31.429Z,97566.22
2023-03-18T01:35:35.888Z,97548.34
2023-03-18T01:40:40.886Z,97546.25
2023-03-18T01:45:50.486Z,97551.53
2023-03-18T01:50:57.010Z,97546.34
2023-03-18T01:56:01.516Z,97546.19
2023-03-18T02:01:19.170Z,97548.63
2023-03-18T02:06:24.946Z,97548.00
2023-03-18T02:11:39.241Z,97549.53
2023-03-18T02:16:48.101Z,97544.22
2023-03-18T02:22:15.385Z,97551.66
2023-03-18T02:27:29.208Z,97555.09
2023-03-18T02:32:34.312Z,97558.28
2023-03-18T02:37:38.332Z,97554.91
2023-03-18T02:42:40.946Z,97540.56
2023-03-18T02:47:47.383Z,97549.38
2023-03-18T02:52:49.861Z,97565.09
2023-03-18T02:57:52.838Z,97562.03
2023-03-18T03:02:55.866Z,97566.88
2023-03-18T03:07:58.782Z,97570.97
2023-03-18T03:13:03.374Z,97581.09
2023-03-18T03:18:07.200Z,97582.00
2023-03-18T03:23:14.318Z,97581.38
2023-03-18T03:28:17.215Z,97588.06
2023-03-18T03:33:20.477Z,97591.53
2023-03-18T03:38:23.146Z,97589.66
2023-03-18T03:43:25.782Z,97586.72
2023-03-18T03:48:28.340Z,97601.06
2023-03-18T03:53:31.130Z,97590.63
2023-03-18T03:58:34.298Z,97592.44
2023-03-18T04:03:37.133Z,97599.38
2023-03-18T04:08:42.617Z,97602.72
2023-03-18T04:13:45.803Z,97599.09
2023-03-18T04:18:48.333Z,97602.97
2023-03-18T04:23:51.105Z,97603.94
2023-03-18T04:28:53.612Z,97609.13
2023-03-18T04:33:57.516Z,97605.25
2023-03-18T04:39:00.536Z,97608.69
2023-03-18T04:44:04.538Z,97605.72
2023-03-18T04:49:15.979Z,97617.63
2023-03-18T04:54:19.251Z,97609.97
2023-03-18T04:59:22.568Z,97614.00
2023-03-18T05:04:27.461Z,97612.09
2023-03-18T05:09:30.412Z,97602.97
2023-03-18T05:14:34.432Z,97609.09
2023-03-18T05:19:41.124Z,97608.53
2023-03-18T05:24:49.728Z,97625.66
2023-03-18T05:29:53.036Z,97616.28
2023-03-18T05:35:05.892Z,97621.66
2023-03-18T05:40:18.044Z,97624.84
2023-03-18T05:45:35.804Z,97622.25
2023-03-18T05:50:44.309Z,97623.91
2023-03-18T05:55:51.753Z,97623.59
2023-03-18T06:00:54.857Z,97625.22
2023-03-18T06:05:57.530Z,97625.75
2023-03-18T06:11:01.275Z,97626.81
2023-03-18T06:16:04.270Z,97623.63
2023-03-18T06:21:13.004Z,97629.84
2023-03-18T06:26:15.420Z,97628.19
2023-03-18T06:31:23.288Z,97645.22
2023-03-18T06:36:26.717Z,97644.69
2023-03-18T06:41:30.310Z,97642.53
2023-03-18T06:46:58.869Z,97637.47
2023-03-18T06:52:03.736Z,97639.28
2023-03-18T06:57:07.653Z,97646.25
2023-03-18T07:02:12.466Z,97647.72
2023-03-18T07:07:14.966Z,97649.97
2023-03-18T07:12:17.849Z,97649.84
2023-03-18T07:17:20.732Z,97646.97
2023-03-18T07:22:23.361Z,97660.34
2023-03-18T07:27:25.893Z,97653.81
2023-03-18T07:32:30.751Z,97666.38
2023-03-18T07:37:36.679Z,97662.53
2023-03-18T07:42:40.221Z,97665.78
2023-03-18T07:47:47.228Z,97661.72
2023-03-18T07:52:49.823Z,97663.13
2023-03-18T07:57:52.423Z,97669.44
2023-03-18T08:02:55.394Z,97668.78
2023-03-18T08:07:58.483Z,97669.75
2023-03-18T08:13:06.690Z,97667.69
2023-03-18T08:18:09.801Z,97678.16
2023-03-18T08:23:12.858Z,97678.91
2023-03-18T08:28:16.126Z,97679.06
2023-03-18T08:33:20.147Z,97682.63
2023-03-18T08:38:26.025Z,97680.69
2023-03-18T08:43:28.507Z,97677.19
2023-03-18T08:48:31.311Z,97676.72
2023-03-18T08:53:34.163Z,97683.06
2023-03-18T08:58:36.638Z,97667.31
2023-03-18T09:03:39.526Z,97664.97
2023-03-18T09:08:42.590Z,97665.69
2023-03-18T09:13:45.031Z,97652.25
2023-03-18T09:18:48.882Z,97657.88
2023-03-18T09:23:52.799Z,97656.69
2023-03-18T09:28:55.420Z,97649.94
2023-03-18T09:33:58.743Z,97655.78
2023-03-18T09:39:01.440Z,97642.94
2023-03-18T09:44:10.721Z,97639.44
2023-03-18T09:49:15.985Z,97642.28
2023-03-18T09:54:44.792Z,97640.63
2023-03-18T10:00:02.933Z,97639.09
2023-03-18T10:05:23.598Z,97634.97
2023-03-18T10:10:38.727Z,97631.44
2023-03-18T10:15:47.873Z,97620.22
2023-03-18T10:21:11.312Z,97621.16
2023-03-18T10:26:37.204Z,97626.94
2023-03-18T10:31:48.614Z,97619.78
2023-03-18T10:37:15.385Z,97628.84
2023-03-18T10:42:23.195Z,97630.03
2023-03-18T10:47:34.147Z,97615.84
2023-03-18T10:52:51.308Z,97604.47
2023-03-18T10:57:53.860Z,97609.38
2023-03-18T11:02:57.171Z,97605.84
2023-03-18T11:08:01.347Z,97603.19
2023-03-18T11:13:04.399Z,97606.97
2023-03-18T11:18:14.315Z,97603.41
2023-03-18T11:23:48.534Z,97586.31
2023-03-18T11:28:57.213Z,97588.41
2023-03-18T11:34:00.797Z,97585.69
2023-03-18T11:39:06.285Z,97584.34
2023-03-18T11:44:17.894Z,97583.31
2023-03-18T11:49:27.077Z,97567.44
2023-03-18T11:55:02.228Z,97554.81
2023-03-18T12:00:29.645Z,97558.94
2023-03-18T12:06:02.625Z,97554.75
2023-03-18T12:11:38.410Z,97545.16
2023-03-18T12:16:59.688Z,97549.75
2023-03-18T12:22:40.240Z,97541.00
2023-03-18T12:27:58.812Z,97520.81
2023-03-18T12:33:34.553Z,97528.69
2023-03-18T12:39:08.315Z,97519.69
2023-03-18T12:44:35.461Z,97516.31
2023-03-18T12:49:43.810Z,97517.06
2023-03-18T12:55:12.048Z,97505.72
2023-03-18T13:00:27.122Z,97499.69
2023-03-18T13:05:52.609Z,97506.09
2023-03-18T13:11:42.136Z,97491.88
2023-03-18T13:16:44.708Z,97489.84
2023-03-18T13:21:54.048Z,97495.78
2023-03-18T13:27:16.141Z,97488.78
2023-03-18T13:32:30.528Z,97491.50
2023-03-18T13:37:54.475Z,97476.88
2023-03-18T13:43:02.560Z,97481.44
2023-03-18T13:48:16.471Z,97489.75
2023-03-18T13:53:34.548Z,97488.03
2023-03-18T13:58:47.715Z,97487.28
2023-03-18T14:03:50.051Z,97487.94
2023-03-18T14:08:53.688Z,97475.03
2023-03-18T14:14:01.168Z,97475.66
2023-03-18T14:19:12.527Z,97469.47
2023-03-18T14:24:23.645Z,97478.25
2023-03-18T14:29:31.223Z,97482.31
2023-03-18T14:34:34.875Z,97480.91
2023-03-18T14:39:37.461Z,97477.88
2023-03-18T14:45:00.676Z,97469.09
2023-03-18T14:50:25.554Z,97461.53
2023-03-18T14:55:34.238Z,97449.91
2023-03-18T15:00:37.711Z,97452.13
2023-03-18T15:05:42.463Z,97454.09
2023-03-18T15:10:50.418Z,97452.50
2023-03-18T15:15:59.374Z,97452.72
2023-03-18T15:21:17.866Z,97452.44
2023-03-18T15:26:29.009Z,97443.56
2023-03-18T15:31:39.556Z,97434.34
2023-03-18T15:36:52.976Z,97443.66
2023-03-18T15:41:57.877Z,97440.06
2023-03-18T15:47:29.916Z,97442.66
2023-03-18T15:52:36.570Z,97449.50
2023-03-18T15:57:40.319Z,97452.50
2023-03-18T16:02:43.417Z,97456.81
2023-03-18T16:07:46.831Z,97466.13
2023-03-18T16:12:53.713Z,97460.84
2023-03-18T16:17:57.969Z,97461.09
2023-03-18T16:23:00.621Z,97466.59
2023-03-18T16:28:03.442Z,97486.38
2023-03-18T16:33:08.622Z,97491.66
2023-03-18T16:38:16.544Z,97497.13
2023-03-18T16:43:23.874Z,97505.38
2023-03-18T16:48:27.957Z,97504.56
2023-03-18T16:53:31.665Z,97513.00
2023-03-18T16:58:36.680Z,97516.00
2023-03-18T17:03:39.082Z,97528.19
2023-03-18T17:08:42.144Z,97530.09
2023-03-18T17:13:44.840Z,97541.03
2023-03-18T17:18:47.308Z,97542.47
2023-03-18T17:23:49.793Z,97542.06
2023-03-18T17:28:54.020Z,97541.94
2023-03-18T17:33:56.509Z,97548.88
2023-03-18T17:39:00.427Z,97551.31
2023-03-18T17:44:03.281Z,97556.16
2023-03-18T17:49:11.960Z,97562.50
2023-03-18T17:54:21.909Z,97558.38
2023-03-18T17:59:27.660Z,97565.81
2023-03-18T18:04:30.289Z,97561.09
2023-03-18T18:09:33.048Z,97558.09
2023-03-18T18:14:36.064Z,97565.63
2023-03-18T18:19:38.815Z,97570.38
2023-03-18T18:24:42.078Z,97561.78
2023-03-18T18:29:46.048Z,97562.84
2023-03-18T18:34:49.206Z,97558.88
2023-03-18T18:39:51.677Z,97569.13
2023-03-18T18:44:54.098Z,97567.09
2023-03-18T18:49:56.508Z,97570.16
2023-03-18T18:55:02.270Z,97578.03
2023-03-18T19:00:10.081Z,97579.47
2023-03-18T19:05:14.182Z,97575.88
2023-03-18T19:10:18.442Z,97573.28
2023-03-18T19:15:21.689Z,97573.00
2023-03-18T19:20:29.914Z,97569.41
2023-03-18T19:25:32.861Z,97572.59
2023-03-18T19:30:38.483Z,97579.56
2023-03-18T19:35:41.540Z,97591.66
2023-03-18T19:40:44.130Z,97599.97
2023-03-18T19:45:49.785Z,97600.25
2023-03-18T19:50:53.007Z,97588.78
2023-03-18T19:55:56.066Z,97596.44
2023-03-18T20:01:00.637Z,97601.44
2023-03-18T20:06:03.545Z,97604.91
2023-03-18T20:11:10.848Z,97613.81
2023-03-18T20:16:15.456Z,97619.34
2023-03-18T20:21:30.038Z,97630.06
2023-03-18T20:26:32.696Z,97623.06
2023-03-18T20:31:35.280Z,97621.78
2023-03-18T20:36:38.502Z,97621.84
2023-03-18T20:41:41.068Z,97625.75
2023-03-18T20:46:43.465Z,97633.00
2023-03-18T20:51:46.333Z,97631.34
2023-03-18T20:56:49.112Z,97642.25
2023-03-18T21:01:51.938Z,97638.22
2023-03-18T21:06:54.421Z,97637.63
2023-03-18T21:11:56.983Z,97637.19
2023-03-18T21:16:59.414Z,97628.69
2023-03-18T21:22:02.283Z,97635.59
2023-03-18T21:27:05.877Z,97632.84
2023-03-18T21:32:19.457Z,97632.91
2023-03-18T21:37:24.524Z,97638.13
2023-03-18T21:42:30.771Z,97631.75
2023-03-18T21:47:33.387Z,97638.78
2023-03-18T21:52:37.585Z,97646.09
2023-03-18T21:57:40.372Z,97632.16
2023-03-18T22:02:43.283Z,97635.41
2023-03-18T22:07:46.180Z,97636.69
2023-03-18T22:12:48.979Z,97640.34
2023-03-18T22:17:52.173Z,97643.53
2023-03-18T22:22:54.653Z,97646.47
2023-03-18T22:27:58.472Z,97648.66
2023-03-18T22:33:04.081Z,97645.44
2023-03-18T22:38:06.570Z,97651.38
2023-03-18T22:43:34.986Z,97654.53
2023-03-18T22:48:38.010Z,97660.16
2023-03-18T22:53:42.486Z,97654.25
2023-03-18T22:58:45.498Z,97653.50
2023-03-18T23:03:49.045Z,97647.41
2023-03-18T23:08:51.506Z,97651.06
2023-03-18T23:13:54.600Z,97663.22
2023-03-18T23:18:57.267Z,97660.91
2023-03-18T23:23:59.917Z,97664.41
2023-03-18T23:29:02.930Z,97667.88
2023-03-18T23:34:05.802Z,97675.03
2023-03-18T23:39:08.217Z,97673.22
2023-03-18T23:44:10.730Z,97667.13
2023-03-18T23:49:13.759Z,97674.72
2023-03-18T23:54:16.204Z,97669.56
2023-03-18T23:59:18.923Z,97682.06
